sensor_id;sensor_type;location;lat;lon;timestamp;P1;durP1;ratioP1;P2;durP2;ratioP2
3095;SDS011;1558;42.700;23.360;2023-05-07T00:00:07;14.10;;;12.80;;
3095;SDS011;1558;42.700;23.360;2023-05-07T00:02:39;15.50;;;13.93;;
3095;SDS011;1558;42.700;23.360;2023-05-07T00:05:07;16.97;;;15.27;;
3095;SDS011;1558;42.700;23.360;2023-05-07T00:07:36;15.03;;;13.67;;
3095;SDS011;1558;42.700;23.360;2023-05-07T00:10:04;14.77;;;13.47;;
3095;SDS011;1558;42.700;23.360;2023-05-07T00:12:34;15.43;;;13.87;;
3095;SDS011;1558;42.700;23.360;2023-05-07T00:15:02;15.00;;;13.50;;
3095;SDS011;1558;42.700;23.360;2023-05-07T00:17:30;17.07;;;14.23;;
3095;SDS011;1558;42.700;23.360;2023-05-07T00:20:00;15.40;;;13.90;;
3095;SDS011;1558;42.700;23.360;2023-05-07T00:22:28;16.13;;;14.17;;
3095;SDS011;1558;42.700;23.360;2023-05-07T00:24:58;15.60;;;14.00;;
3095;SDS011;1558;42.700;23.360;2023-05-07T00:27:26;13.87;;;12.57;;
3095;SDS011;1558;42.700;23.360;2023-05-07T00:29:54;13.53;;;12.33;;
3095;SDS011;1558;42.700;23.360;2023-05-07T00:32:22;14.27;;;12.97;;
3095;SDS011;1558;42.700;23.360;2023-05-07T00:34:50;15.30;;;11.93;;
3095;SDS011;1558;42.700;23.360;2023-05-07T00:37:19;13.70;;;12.50;;
3095;SDS011;1558;42.700;23.360;2023-05-07T00:39:47;16.47;;;14.90;;
3095;SDS011;1558;42.700;23.360;2023-05-07T00:42:15;18.60;;;13.30;;
3095;SDS011;1558;42.700;23.360;2023-05-07T00:44:44;14.60;;;13.20;;
3095;SDS011;1558;42.700;23.360;2023-05-07T00:47:12;14.80;;;12.97;;
3095;SDS011;1558;42.700;23.360;2023-05-07T00:49:42;14.73;;;12.07;;
3095;SDS011;1558;42.700;23.360;2023-05-07T00:52:12;16.23;;;13.20;;
3095;SDS011;1558;42.700;23.360;2023-05-07T00:54:43;16.30;;;14.43;;
3095;SDS011;1558;42.700;23.360;2023-05-07T00:57:11;15.87;;;14.23;;
3095;SDS011;1558;42.700;23.360;2023-05-07T00:59:40;13.93;;;12.57;;
3095;SDS011;1558;42.700;23.360;2023-05-07T01:02:08;16.63;;;13.60;;
3095;SDS011;1558;42.700;23.360;2023-05-07T01:04:37;16.90;;;14.90;;
3095;SDS011;1558;42.700;23.360;2023-05-07T01:07:06;16.03;;;14.43;;
3095;SDS011;1558;42.700;23.360;2023-05-07T01:09:35;15.90;;;14.20;;
3095;SDS011;1558;42.700;23.360;2023-05-07T01:12:05;16.23;;;14.53;;
3095;SDS011;1558;42.700;23.360;2023-05-07T01:14:34;14.90;;;12.87;;
3095;SDS011;1558;42.700;23.360;2023-05-07T01:17:03;11.03;;;9.97;;
3095;SDS011;1558;42.700;23.360;2023-05-07T01:19:31;12.00;;;10.80;;
3095;SDS011;1558;42.700;23.360;2023-05-07T01:22:01;11.87;;;10.67;;
3095;SDS011;1558;42.700;23.360;2023-05-07T01:24:32;10.37;;;9.40;;
3095;SDS011;1558;42.700;23.360;2023-05-07T01:27:02;10.70;;;9.60;;
3095;SDS011;1558;42.700;23.360;2023-05-07T01:29:30;10.33;;;9.30;;
3095;SDS011;1558;42.700;23.360;2023-05-07T01:31:58;10.67;;;9.70;;
3095;SDS011;1558;42.700;23.360;2023-05-07T01:34:29;11.20;;;8.60;;
3095;SDS011;1558;42.700;23.360;2023-05-07T01:37:00;9.13;;;8.23;;
3095;SDS011;1558;42.700;23.360;2023-05-07T01:39:29;9.27;;;8.43;;
3095;SDS011;1558;42.700;23.360;2023-05-07T01:42:00;9.73;;;8.87;;
3095;SDS011;1558;42.700;23.360;2023-05-07T01:44:28;10.10;;;9.03;;
3095;SDS011;1558;42.700;23.360;2023-05-07T01:46:57;10.50;;;9.57;;
3095;SDS011;1558;42.700;23.360;2023-05-07T01:49:25;10.20;;;9.20;;
3095;SDS011;1558;42.700;23.360;2023-05-07T01:51:55;11.20;;;10.20;;
3095;SDS011;1558;42.700;23.360;2023-05-07T01:54:25;10.13;;;9.13;;
3095;SDS011;1558;42.700;23.360;2023-05-07T01:56:54;10.97;;;9.23;;
3095;SDS011;1558;42.700;23.360;2023-05-07T01:59:25;10.60;;;9.60;;
3095;SDS011;1558;42.700;23.360;2023-05-07T02:01:53;11.43;;;10.33;;
3095;SDS011;1558;42.700;23.360;2023-05-07T02:04:21;12.13;;;11.03;;
3095;SDS011;1558;42.700;23.360;2023-05-07T02:06:49;11.37;;;10.27;;
3095;SDS011;1558;42.700;23.360;2023-05-07T02:09:17;13.90;;;10.80;;
3095;SDS011;1558;42.700;23.360;2023-05-07T02:11:45;11.23;;;10.13;;
3095;SDS011;1558;42.700;23.360;2023-05-07T02:14:13;11.03;;;10.03;;
3095;SDS011;1558;42.700;23.360;2023-05-07T02:16:43;12.13;;;10.97;;
3095;SDS011;1558;42.700;23.360;2023-05-07T02:19:11;13.13;;;11.93;;
3095;SDS011;1558;42.700;23.360;2023-05-07T02:21:39;12.77;;;11.47;;
3095;SDS011;1558;42.700;23.360;2023-05-07T02:24:07;14.27;;;13.07;;
3095;SDS011;1558;42.700;23.360;2023-05-07T02:26:35;14.70;;;13.20;;
3095;SDS011;1558;42.700;23.360;2023-05-07T02:29:03;15.33;;;14.03;;
3095;SDS011;1558;42.700;23.360;2023-05-07T02:31:31;17.33;;;15.73;;
3095;SDS011;1558;42.700;23.360;2023-05-07T02:34:01;19.43;;;17.53;;
3095;SDS011;1558;42.700;23.360;2023-05-07T02:36:30;23.40;;;21.20;;
3095;SDS011;1558;42.700;23.360;2023-05-07T02:38:58;17.87;;;16.13;;
3095;SDS011;1558;42.700;23.360;2023-05-07T02:41:26;16.53;;;15.03;;
3095;SDS011;1558;42.700;23.360;2023-05-07T02:43:54;18.60;;;16.67;;
3095;SDS011;1558;42.700;23.360;2023-05-07T02:46:22;17.30;;;15.70;;
3095;SDS011;1558;42.700;23.360;2023-05-07T02:48:50;17.13;;;15.37;;
3095;SDS011;1558;42.700;23.360;2023-05-07T02:51:21;16.17;;;14.37;;
3095;SDS011;1558;42.700;23.360;2023-05-07T02:53:51;16.20;;;14.40;;
3095;SDS011;1558;42.700;23.360;2023-05-07T02:56:19;15.30;;;13.93;;
3095;SDS011;1558;42.700;23.360;2023-05-07T02:58:47;16.10;;;14.53;;
3095;SDS011;1558;42.700;23.360;2023-05-07T03:01:15;16.50;;;14.90;;
3095;SDS011;1558;42.700;23.360;2023-05-07T03:03:43;15.70;;;14.00;;
3095;SDS011;1558;42.700;23.360;2023-05-07T03:06:12;15.87;;;14.37;;
3095;SDS011;1558;42.700;23.360;2023-05-07T03:08:41;17.67;;;15.70;;
3095;SDS011;1558;42.700;23.360;2023-05-07T03:11:09;20.00;;;17.73;;
3095;SDS011;1558;42.700;23.360;2023-05-07T03:13:37;29.10;;;21.73;;
3095;SDS011;1558;42.700;23.360;2023-05-07T03:16:05;19.87;;;17.67;;
3095;SDS011;1558;42.700;23.360;2023-05-07T03:18:34;19.70;;;17.70;;
3095;SDS011;1558;42.700;23.360;2023-05-07T03:21:02;20.80;;;17.37;;
3095;SDS011;1558;42.700;23.360;2023-05-07T03:23:30;17.63;;;15.77;;
3095;SDS011;1558;42.700;23.360;2023-05-07T03:25:59;17.70;;;15.93;;
3095;SDS011;1558;42.700;23.360;2023-05-07T03:28:27;17.10;;;15.50;;
3095;SDS011;1558;42.700;23.360;2023-05-07T03:30:55;22.93;;;17.73;;
3095;SDS011;1558;42.700;23.360;2023-05-07T03:33:23;24.00;;;19.97;;
3095;SDS011;1558;42.700;23.360;2023-05-07T03:35:51;17.47;;;15.13;;
3095;SDS011;1558;42.700;23.360;2023-05-07T03:38:19;16.40;;;14.40;;
3095;SDS011;1558;42.700;23.360;2023-05-07T03:40:48;16.87;;;14.90;;
3095;SDS011;1558;42.700;23.360;2023-05-07T03:43:17;16.60;;;15.10;;
3095;SDS011;1558;42.700;23.360;2023-05-07T03:45:45;16.87;;;15.17;;
3095;SDS011;1558;42.700;23.360;2023-05-07T03:48:13;17.03;;;15.40;;
3095;SDS011;1558;42.700;23.360;2023-05-07T03:50:41;17.20;;;15.50;;
3095;SDS011;1558;42.700;23.360;2023-05-07T03:53:09;16.10;;;14.47;;
3095;SDS011;1558;42.700;23.360;2023-05-07T03:55:37;16.17;;;14.67;;
3095;SDS011;1558;42.700;23.360;2023-05-07T03:58:05;19.53;;;15.80;;
3095;SDS011;1558;42.700;23.360;2023-05-07T04:00:34;18.87;;;16.70;;
3095;SDS011;1558;42.700;23.360;2023-05-07T04:03:05;20.47;;;16.73;;
3095;SDS011;1558;42.700;23.360;2023-05-07T04:05:34;18.97;;;16.47;;
3095;SDS011;1558;42.700;23.360;2023-05-07T04:08:02;18.43;;;16.03;;
3095;SDS011;1558;42.700;23.360;2023-05-07T04:10:32;18.77;;;16.63;;
3095;SDS011;1558;42.700;23.360;2023-05-07T04:13:00;23.73;;;16.70;;
3095;SDS011;1558;42.700;23.360;2023-05-07T04:15:28;21.27;;;16.07;;
3095;SDS011;1558;42.700;23.360;2023-05-07T04:17:57;17.73;;;15.73;;
3095;SDS011;1558;42.700;23.360;2023-05-07T04:20:25;18.17;;;14.93;;
3095;SDS011;1558;42.700;23.360;2023-05-07T04:22:53;15.57;;;14.00;;
3095;SDS011;1558;42.700;23.360;2023-05-07T04:25:22;16.47;;;14.73;;
3095;SDS011;1558;42.700;23.360;2023-05-07T04:27:53;16.27;;;14.47;;
3095;SDS011;1558;42.700;23.360;2023-05-07T04:30:23;14.87;;;13.47;;
3095;SDS011;1558;42.700;23.360;2023-05-07T04:33:10;14.47;;;13.07;;
3095;SDS011;1558;42.700;23.360;2023-05-07T04:35:38;13.73;;;12.53;;
3095;SDS011;1558;42.700;23.360;2023-05-07T04:38:06;14.97;;;13.40;;
3095;SDS011;1558;42.700;23.360;2023-05-07T04:40:35;14.20;;;11.80;;
3095;SDS011;1558;42.700;23.360;2023-05-07T04:43:03;14.47;;;13.00;;
3095;SDS011;1558;42.700;23.360;2023-05-07T04:45:32;13.90;;;11.77;;
3095;SDS011;1558;42.700;23.360;2023-05-07T04:48:00;13.67;;;12.33;;
3095;SDS011;1558;42.700;23.360;2023-05-07T04:50:30;13.97;;;12.43;;
3095;SDS011;1558;42.700;23.360;2023-05-07T04:52:58;14.03;;;12.53;;
3095;SDS011;1558;42.700;23.360;2023-05-07T04:55:26;14.30;;;12.97;;
3095;SDS011;1558;42.700;23.360;2023-05-07T04:57:54;14.73;;;13.27;;
3095;SDS011;1558;42.700;23.360;2023-05-07T05:00:22;15.70;;;14.10;;
3095;SDS011;1558;42.700;23.360;2023-05-07T05:02:51;15.73;;;13.97;;
3095;SDS011;1558;42.700;23.360;2023-05-07T05:05:19;17.47;;;14.20;;
3095;SDS011;1558;42.700;23.360;2023-05-07T05:07:48;16.70;;;15.20;;
3095;SDS011;1558;42.700;23.360;2023-05-07T05:10:18;16.80;;;15.30;;
3095;SDS011;1558;42.700;23.360;2023-05-07T05:12:49;17.20;;;15.53;;
3095;SDS011;1558;42.700;23.360;2023-05-07T05:15:17;16.33;;;14.73;;
3095;SDS011;1558;42.700;23.360;2023-05-07T05:17:45;16.20;;;14.60;;
3095;SDS011;1558;42.700;23.360;2023-05-07T05:20:13;17.00;;;15.40;;
3095;SDS011;1558;42.700;23.360;2023-05-07T05:22:42;14.82;;;13.52;;
3095;SDS011;1558;42.700;23.360;2023-05-07T05:25:11;15.40;;;13.80;;
3095;SDS011;1558;42.700;23.360;2023-05-07T05:27:39;15.30;;;13.90;;
3095;SDS011;1558;42.700;23.360;2023-05-07T05:30:07;16.13;;;14.32;;
3095;SDS011;1558;42.700;23.360;2023-05-07T05:32:37;19.17;;;14.23;;
3095;SDS011;1558;42.700;23.360;2023-05-07T05:35:05;15.85;;;13.45;;
3095;SDS011;1558;42.700;23.360;2023-05-07T05:37:34;18.67;;;13.25;;
3095;SDS011;1558;42.700;23.360;2023-05-07T05:40:03;16.67;;;13.52;;
3095;SDS011;1558;42.700;23.360;2023-05-07T05:42:36;14.50;;;13.10;;
3095;SDS011;1558;42.700;23.360;2023-05-07T05:45:05;14.45;;;13.15;;
3095;SDS011;1558;42.700;23.360;2023-05-07T05:47:41;13.57;;;12.38;;
3095;SDS011;1558;42.700;23.360;2023-05-07T05:50:10;14.13;;;12.93;;
3095;SDS011;1558;42.700;23.360;2023-05-07T05:52:42;14.23;;;12.95;;
3095;SDS011;1558;42.700;23.360;2023-05-07T05:55:11;13.25;;;12.02;;
3095;SDS011;1558;42.700;23.360;2023-05-07T05:57:43;12.75;;;11.63;;
3095;SDS011;1558;42.700;23.360;2023-05-07T06:00:12;12.05;;;11.00;;
3095;SDS011;1558;42.700;23.360;2023-05-07T06:02:42;12.15;;;11.05;;
3095;SDS011;1558;42.700;23.360;2023-05-07T06:07:57;13.50;;;12.00;;
3095;SDS011;1558;42.700;23.360;2023-05-07T06:10:47;13.05;;;11.95;;
3095;SDS011;1558;42.700;23.360;2023-05-07T06:13:24;12.68;;;11.60;;
3095;SDS011;1558;42.700;23.360;2023-05-07T06:15:56;13.63;;;12.32;;
3095;SDS011;1558;42.700;23.360;2023-05-07T06:18:26;15.10;;;13.95;;
3095;SDS011;1558;42.700;23.360;2023-05-07T06:20:56;14.52;;;13.13;;
3095;SDS011;1558;42.700;23.360;2023-05-07T06:23:25;13.68;;;12.55;;
3095;SDS011;1558;42.700;23.360;2023-05-07T06:25:54;14.38;;;12.90;;
3095;SDS011;1558;42.700;23.360;2023-05-07T06:28:24;14.70;;;13.23;;
3095;SDS011;1558;42.700;23.360;2023-05-07T06:31:06;14.50;;;13.32;;
3095;SDS011;1558;42.700;23.360;2023-05-07T06:33:43;14.50;;;13.27;;
3095;SDS011;1558;42.700;23.360;2023-05-07T06:36:16;14.65;;;13.35;;
3095;SDS011;1558;42.700;23.360;2023-05-07T06:38:45;14.82;;;13.38;;
3095;SDS011;1558;42.700;23.360;2023-05-07T06:41:16;15.07;;;13.50;;
3095;SDS011;1558;42.700;23.360;2023-05-07T06:43:48;13.98;;;12.65;;
3095;SDS011;1558;42.700;23.360;2023-05-07T06:46:22;15.20;;;14.00;;
3095;SDS011;1558;42.700;23.360;2023-05-07T06:48:50;15.07;;;13.77;;
3095;SDS011;1558;42.700;23.360;2023-05-07T06:51:19;15.40;;;14.00;;
3095;SDS011;1558;42.700;23.360;2023-05-07T06:53:47;16.35;;;14.85;;
3095;SDS011;1558;42.700;23.360;2023-05-07T06:56:15;16.35;;;14.75;;
3095;SDS011;1558;42.700;23.360;2023-05-07T06:58:43;15.10;;;13.77;;
3095;SDS011;1558;42.700;23.360;2023-05-07T07:01:13;14.73;;;13.38;;
3095;SDS011;1558;42.700;23.360;2023-05-07T07:03:41;15.38;;;13.93;;
3095;SDS011;1558;42.700;23.360;2023-05-07T07:06:09;14.73;;;13.48;;
3095;SDS011;1558;42.700;23.360;2023-05-07T07:08:37;14.90;;;13.73;;
3095;SDS011;1558;42.700;23.360;2023-05-07T07:11:06;13.60;;;12.38;;
3095;SDS011;1558;42.700;23.360;2023-05-07T07:13:34;13.50;;;12.40;;
3095;SDS011;1558;42.700;23.360;2023-05-07T07:16:02;13.65;;;12.55;;
3095;SDS011;1558;42.700;23.360;2023-05-07T07:18:32;14.27;;;12.98;;
3095;SDS011;1558;42.700;23.360;2023-05-07T07:21:00;13.85;;;12.57;;
3095;SDS011;1558;42.700;23.360;2023-05-07T07:23:28;14.30;;;12.93;;
3095;SDS011;1558;42.700;23.360;2023-05-07T07:25:56;13.70;;;12.50;;
3095;SDS011;1558;42.700;23.360;2023-05-07T07:28:24;14.52;;;12.35;;
3095;SDS011;1558;42.700;23.360;2023-05-07T07:30:52;13.43;;;12.02;;
3095;SDS011;1558;42.700;23.360;2023-05-07T07:33:21;14.07;;;12.85;;
3095;SDS011;1558;42.700;23.360;2023-05-07T07:35:50;14.27;;;12.85;;
3095;SDS011;1558;42.700;23.360;2023-05-07T07:38:18;13.57;;;11.95;;
3095;SDS011;1558;42.700;23.360;2023-05-07T07:40:47;12.65;;;11.52;;
3095;SDS011;1558;42.700;23.360;2023-05-07T07:43:15;13.70;;;11.48;;
3095;SDS011;1558;42.700;23.360;2023-05-07T07:45:43;12.80;;;11.70;;
3095;SDS011;1558;42.700;23.360;2023-05-07T07:48:12;12.90;;;11.30;;
3095;SDS011;1558;42.700;23.360;2023-05-07T07:50:40;12.50;;;11.20;;
3095;SDS011;1558;42.700;23.360;2023-05-07T07:53:12;12.32;;;11.13;;
3095;SDS011;1558;42.700;23.360;2023-05-07T07:55:40;12.27;;;11.35;;
3095;SDS011;1558;42.700;23.360;2023-05-07T07:58:08;11.65;;;10.65;;
3095;SDS011;1558;42.700;23.360;2023-05-07T08:00:37;11.55;;;10.52;;
3095;SDS011;1558;42.700;23.360;2023-05-07T08:03:05;12.40;;;11.40;;
3095;SDS011;1558;42.700;23.360;2023-05-07T08:05:36;12.68;;;11.55;;
3095;SDS011;1558;42.700;23.360;2023-05-07T08:08:07;11.50;;;10.40;;
3095;SDS011;1558;42.700;23.360;2023-05-07T08:10:38;11.68;;;10.57;;
3095;SDS011;1558;42.700;23.360;2023-05-07T08:13:06;14.32;;;11.55;;
3095;SDS011;1558;42.700;23.360;2023-05-07T08:15:34;11.43;;;10.45;;
3095;SDS011;1558;42.700;23.360;2023-05-07T08:18:03;13.52;;;10.98;;
3095;SDS011;1558;42.700;23.360;2023-05-07T08:20:31;11.38;;;10.25;;
3095;SDS011;1558;42.700;23.360;2023-05-07T08:23:00;11.52;;;10.43;;
3095;SDS011;1558;42.700;23.360;2023-05-07T08:25:28;13.75;;;11.52;;
3095;SDS011;1558;42.700;23.360;2023-05-07T08:27:57;11.65;;;10.55;;
3095;SDS011;1558;42.700;23.360;2023-05-07T08:30:25;12.05;;;10.88;;
3095;SDS011;1558;42.700;23.360;2023-05-07T08:32:54;12.50;;;10.90;;
3095;SDS011;1558;42.700;23.360;2023-05-07T08:35:22;10.90;;;10.00;;
3095;SDS011;1558;42.700;23.360;2023-05-07T08:37:50;11.98;;;10.80;;
3095;SDS011;1558;42.700;23.360;2023-05-07T08:40:18;10.82;;;9.82;;
3095;SDS011;1558;42.700;23.360;2023-05-07T08:42:48;11.50;;;9.90;;
3095;SDS011;1558;42.700;23.360;2023-05-07T08:45:18;10.85;;;9.95;;
3095;SDS011;1558;42.700;23.360;2023-05-07T08:47:49;11.25;;;10.07;;
3095;SDS011;1558;42.700;23.360;2023-05-07T08:50:20;10.32;;;9.50;;
3095;SDS011;1558;42.700;23.360;2023-05-07T08:52:48;11.43;;;9.40;;
3095;SDS011;1558;42.700;23.360;2023-05-07T08:55:16;12.05;;;9.30;;
3095;SDS011;1558;42.700;23.360;2023-05-07T08:57:45;8.82;;;8.00;;
3095;SDS011;1558;42.700;23.360;2023-05-07T09:00:13;8.93;;;8.20;;
3095;SDS011;1558;42.700;23.360;2023-05-07T09:02:43;8.93;;;8.07;;
3095;SDS011;1558;42.700;23.360;2023-05-07T09:05:11;9.65;;;7.90;;
3095;SDS011;1558;42.700;23.360;2023-05-07T09:07:40;9.63;;;7.75;;
3095;SDS011;1558;42.700;23.360;2023-05-07T09:10:08;8.30;;;7.35;;
3095;SDS011;1558;42.700;23.360;2023-05-07T09:12:37;7.80;;;7.05;;
3095;SDS011;1558;42.700;23.360;2023-05-07T09:15:06;7.40;;;6.75;;
3095;SDS011;1558;42.700;23.360;2023-05-07T09:17:35;8.07;;;7.07;;
3095;SDS011;1558;42.700;23.360;2023-05-07T09:20:05;9.40;;;8.43;;
3095;SDS011;1558;42.700;23.360;2023-05-07T09:22:37;8.98;;;8.18;;
3095;SDS011;1558;42.700;23.360;2023-05-07T09:25:06;7.88;;;7.18;;
3095;SDS011;1558;42.700;23.360;2023-05-07T09:27:36;7.22;;;6.63;;
3095;SDS011;1558;42.700;23.360;2023-05-07T09:30:05;6.63;;;6.10;;
3095;SDS011;1558;42.700;23.360;2023-05-07T09:32:38;6.70;;;6.10;;
3095;SDS011;1558;42.700;23.360;2023-05-07T09:35:08;7.85;;;7.05;;
3095;SDS011;1558;42.700;23.360;2023-05-07T09:37:50;7.72;;;7.05;;
3095;SDS011;1558;42.700;23.360;2023-05-07T09:40:20;7.15;;;6.55;;
3095;SDS011;1558;42.700;23.360;2023-05-07T09:42:50;7.07;;;6.38;;
3095;SDS011;1558;42.700;23.360;2023-05-07T09:45:21;7.82;;;7.22;;
3095;SDS011;1558;42.700;23.360;2023-05-07T09:47:52;7.32;;;6.30;;
3095;SDS011;1558;42.700;23.360;2023-05-07T09:50:26;6.50;;;6.00;;
3095;SDS011;1558;42.700;23.360;2023-05-07T09:52:55;7.03;;;6.43;;
3095;SDS011;1558;42.700;23.360;2023-05-07T09:55:23;7.75;;;6.43;;
3095;SDS011;1558;42.700;23.360;2023-05-07T09:57:53;7.30;;;6.70;;
3095;SDS011;1558;42.700;23.360;2023-05-07T10:00:22;6.85;;;5.85;;
3095;SDS011;1558;42.700;23.360;2023-05-07T10:02:51;6.40;;;5.78;;
3095;SDS011;1558;42.700;23.360;2023-05-07T10:05:20;5.60;;;5.10;;
3095;SDS011;1558;42.700;23.360;2023-05-07T10:07:51;5.63;;;5.07;;
3095;SDS011;1558;42.700;23.360;2023-05-07T10:10:23;5.10;;;4.68;;
3095;SDS011;1558;42.700;23.360;2023-05-07T10:12:54;6.57;;;4.80;;
3095;SDS011;1558;42.700;23.360;2023-05-07T10:15:23;6.30;;;5.32;;
3095;SDS011;1558;42.700;23.360;2023-05-07T10:17:51;6.47;;;5.50;;
3095;SDS011;1558;42.700;23.360;2023-05-07T10:20:22;6.63;;;6.05;;
3095;SDS011;1558;42.700;23.360;2023-05-07T10:22:53;7.20;;;6.38;;
3095;SDS011;1558;42.700;23.360;2023-05-07T10:25:26;6.22;;;5.65;;
3095;SDS011;1558;42.700;23.360;2023-05-07T10:27:59;6.85;;;6.03;;
3095;SDS011;1558;42.700;23.360;2023-05-07T10:30:31;6.97;;;5.97;;
3095;SDS011;1558;42.700;23.360;2023-05-07T10:33:09;5.70;;;5.30;;
3095;SDS011;1558;42.700;23.360;2023-05-07T10:35:40;6.82;;;6.22;;
3095;SDS011;1558;42.700;23.360;2023-05-07T10:38:11;6.07;;;5.53;;
3095;SDS011;1558;42.700;23.360;2023-05-07T10:40:40;6.40;;;5.80;;
3095;SDS011;1558;42.700;23.360;2023-05-07T10:43:09;6.80;;;5.30;;
3095;SDS011;1558;42.700;23.360;2023-05-07T10:45:37;5.85;;;5.20;;
3095;SDS011;1558;42.700;23.360;2023-05-07T10:48:05;5.85;;;5.20;;
3095;SDS011;1558;42.700;23.360;2023-05-07T10:51:18;6.47;;;5.10;;
3095;SDS011;1558;42.700;23.360;2023-05-07T10:53:49;6.22;;;5.63;;
3095;SDS011;1558;42.700;23.360;2023-05-07T10:56:46;6.22;;;5.72;;
3095;SDS011;1558;42.700;23.360;2023-05-07T11:02:10;5.20;;;4.70;;
3095;SDS011;1558;42.700;23.360;2023-05-07T11:04:40;5.60;;;5.15;;
3095;SDS011;1558;42.700;23.360;2023-05-07T11:07:20;5.90;;;5.40;;
3095;SDS011;1558;42.700;23.360;2023-05-07T11:09:56;6.65;;;5.60;;
3095;SDS011;1558;42.700;23.360;2023-05-07T11:15:33;6.13;;;5.63;;
3095;SDS011;1558;42.700;23.360;2023-05-07T11:18:03;5.60;;;5.18;;
3095;SDS011;1558;42.700;23.360;2023-05-07T11:20:44;6.72;;;5.50;;
3095;SDS011;1558;42.700;23.360;2023-05-07T11:26:21;4.97;;;4.57;;
3095;SDS011;1558;42.700;23.360;2023-05-07T11:28:50;4.65;;;4.20;;
3095;SDS011;1558;42.700;23.360;2023-05-07T11:31:23;5.07;;;4.57;;
3095;SDS011;1558;42.700;23.360;2023-05-07T11:33:53;5.05;;;4.75;;
3095;SDS011;1558;42.700;23.360;2023-05-07T11:36:23;5.55;;;4.95;;
3095;SDS011;1558;42.700;23.360;2023-05-07T11:38:52;4.72;;;4.43;;
3095;SDS011;1558;42.700;23.360;2023-05-07T11:41:21;4.82;;;4.43;;
3095;SDS011;1558;42.700;23.360;2023-05-07T11:43:53;4.88;;;4.50;;
3095;SDS011;1558;42.700;23.360;2023-05-07T11:46:23;5.88;;;4.22;;
3095;SDS011;1558;42.700;23.360;2023-05-07T11:48:51;4.72;;;4.32;;
3095;SDS011;1558;42.700;23.360;2023-05-07T11:51:19;5.13;;;4.72;;
3095;SDS011;1558;42.700;23.360;2023-05-07T11:53:48;5.15;;;4.53;;
3095;SDS011;1558;42.700;23.360;2023-05-07T11:56:18;5.32;;;4.93;;
3095;SDS011;1558;42.700;23.360;2023-05-07T11:58:48;5.32;;;4.80;;
3095;SDS011;1558;42.700;23.360;2023-05-07T12:01:18;6.63;;;4.60;;
3095;SDS011;1558;42.700;23.360;2023-05-07T12:03:46;5.00;;;4.70;;
3095;SDS011;1558;42.700;23.360;2023-05-07T12:06:15;5.35;;;5.00;;
3095;SDS011;1558;42.700;23.360;2023-05-07T12:08:44;5.53;;;5.03;;
3095;SDS011;1558;42.700;23.360;2023-05-07T12:11:14;5.47;;;4.97;;
3095;SDS011;1558;42.700;23.360;2023-05-07T12:13:52;5.35;;;4.85;;
3095;SDS011;1558;42.700;23.360;2023-05-07T12:16:24;5.45;;;5.10;;
3095;SDS011;1558;42.700;23.360;2023-05-07T12:18:53;5.85;;;5.22;;
3095;SDS011;1558;42.700;23.360;2023-05-07T12:21:21;5.43;;;4.63;;
3095;SDS011;1558;42.700;23.360;2023-05-07T12:23:51;5.00;;;4.60;;
3095;SDS011;1558;42.700;23.360;2023-05-07T12:26:20;4.55;;;4.22;;
3095;SDS011;1558;42.700;23.360;2023-05-07T12:28:48;4.75;;;3.72;;
3095;SDS011;1558;42.700;23.360;2023-05-07T12:31:18;4.22;;;3.80;;
3095;SDS011;1558;42.700;23.360;2023-05-07T12:33:46;3.80;;;3.50;;
3095;SDS011;1558;42.700;23.360;2023-05-07T12:36:14;4.47;;;4.07;;
3095;SDS011;1558;42.700;23.360;2023-05-07T12:38:43;3.78;;;3.55;;
3095;SDS011;1558;42.700;23.360;2023-05-07T12:41:11;4.40;;;3.63;;
3095;SDS011;1558;42.700;23.360;2023-05-07T12:43:39;4.25;;;3.58;;
3095;SDS011;1558;42.700;23.360;2023-05-07T12:46:12;3.92;;;3.63;;
3095;SDS011;1558;42.700;23.360;2023-05-07T12:48:44;4.30;;;3.50;;
3095;SDS011;1558;42.700;23.360;2023-05-07T12:51:13;4.35;;;3.95;;
3095;SDS011;1558;42.700;23.360;2023-05-07T12:53:41;5.18;;;4.78;;
3095;SDS011;1558;42.700;23.360;2023-05-07T12:56:10;6.55;;;4.47;;
3095;SDS011;1558;42.700;23.360;2023-05-07T12:58:38;4.82;;;4.47;;
3095;SDS011;1558;42.700;23.360;2023-05-07T13:01:06;5.65;;;3.88;;
3095;SDS011;1558;42.700;23.360;2023-05-07T13:03:37;6.50;;;6.00;;
3095;SDS011;1558;42.700;23.360;2023-05-07T13:06:08;4.38;;;4.00;;
3095;SDS011;1558;42.700;23.360;2023-05-07T13:08:39;4.88;;;4.38;;
3095;SDS011;1558;42.700;23.360;2023-05-07T13:11:09;4.07;;;3.65;;
3095;SDS011;1558;42.700;23.360;2023-05-07T13:13:39;4.68;;;3.35;;
3095;SDS011;1558;42.700;23.360;2023-05-07T13:16:09;4.03;;;3.72;;
3095;SDS011;1558;42.700;23.360;2023-05-07T13:18:38;4.30;;;4.00;;
3095;SDS011;1558;42.700;23.360;2023-05-07T13:21:11;7.25;;;4.72;;
3095;SDS011;1558;42.700;23.360;2023-05-07T13:23:40;4.80;;;4.40;;
3095;SDS011;1558;42.700;23.360;2023-05-07T13:26:08;4.97;;;3.83;;
3095;SDS011;1558;42.700;23.360;2023-05-07T13:28:51;4.25;;;3.83;;
3095;SDS011;1558;42.700;23.360;2023-05-07T13:31:19;4.10;;;3.80;;
3095;SDS011;1558;42.700;23.360;2023-05-07T13:33:47;3.80;;;3.50;;
3095;SDS011;1558;42.700;23.360;2023-05-07T13:36:17;5.65;;;5.18;;
3095;SDS011;1558;42.700;23.360;2023-05-07T13:38:45;9.27;;;6.30;;
3095;SDS011;1558;42.700;23.360;2023-05-07T13:41:13;6.70;;;4.78;;
3095;SDS011;1558;42.700;23.360;2023-05-07T13:43:41;4.45;;;4.05;;
3095;SDS011;1558;42.700;23.360;2023-05-07T13:46:09;12.27;;;8.77;;
3095;SDS011;1558;42.700;23.360;2023-05-07T13:48:37;13.98;;;9.00;;
3095;SDS011;1558;42.700;23.360;2023-05-07T13:51:07;16.98;;;10.13;;
3095;SDS011;1558;42.700;23.360;2023-05-07T13:53:37;11.40;;;8.02;;
3095;SDS011;1558;42.700;23.360;2023-05-07T13:56:05;7.18;;;5.72;;
3095;SDS011;1558;42.700;23.360;2023-05-07T13:58:33;19.40;;;12.38;;
3095;SDS011;1558;42.700;23.360;2023-05-07T14:01:13;11.27;;;7.72;;
3095;SDS011;1558;42.700;23.360;2023-05-07T14:03:42;13.23;;;7.65;;
3095;SDS011;1558;42.700;23.360;2023-05-07T14:06:12;20.27;;;14.18;;
3095;SDS011;1558;42.700;23.360;2023-05-07T14:08:41;10.30;;;8.77;;
3095;SDS011;1558;42.700;23.360;2023-05-07T14:11:12;22.77;;;15.60;;
3095;SDS011;1558;42.700;23.360;2023-05-07T14:13:40;8.32;;;7.53;;
3095;SDS011;1558;42.700;23.360;2023-05-07T14:16:09;4.18;;;3.83;;
3095;SDS011;1558;42.700;23.360;2023-05-07T14:18:37;4.40;;;4.00;;
3095;SDS011;1558;42.700;23.360;2023-05-07T14:21:06;4.45;;;3.92;;
3095;SDS011;1558;42.700;23.360;2023-05-07T14:23:36;4.20;;;3.80;;
3095;SDS011;1558;42.700;23.360;2023-05-07T14:26:07;5.28;;;4.82;;
3095;SDS011;1558;42.700;23.360;2023-05-07T14:28:37;4.80;;;4.40;;
3095;SDS011;1558;42.700;23.360;2023-05-07T14:31:06;5.18;;;4.40;;
3095;SDS011;1558;42.700;23.360;2023-05-07T14:33:34;4.25;;;3.95;;
3095;SDS011;1558;42.700;23.360;2023-05-07T14:36:04;4.78;;;4.05;;
3095;SDS011;1558;42.700;23.360;2023-05-07T14:38:35;4.60;;;4.20;;
3095;SDS011;1558;42.700;23.360;2023-05-07T14:41:07;4.20;;;3.80;;
3095;SDS011;1558;42.700;23.360;2023-05-07T14:43:35;4.68;;;3.90;;
3095;SDS011;1558;42.700;23.360;2023-05-07T14:46:03;4.25;;;3.60;;
3095;SDS011;1558;42.700;23.360;2023-05-07T14:48:34;4.57;;;4.28;;
3095;SDS011;1558;42.700;23.360;2023-05-07T14:51:03;4.88;;;4.47;;
3095;SDS011;1558;42.700;23.360;2023-05-07T14:53:31;6.60;;;4.95;;
3095;SDS011;1558;42.700;23.360;2023-05-07T14:55:59;4.47;;;4.00;;
3095;SDS011;1558;42.700;23.360;2023-05-07T14:58:29;5.38;;;3.85;;
3095;SDS011;1558;42.700;23.360;2023-05-07T15:00:57;4.30;;;3.97;;
3095;SDS011;1558;42.700;23.360;2023-05-07T15:03:26;4.40;;;3.83;;
3095;SDS011;1558;42.700;23.360;2023-05-07T15:05:54;4.28;;;3.60;;
3095;SDS011;1558;42.700;23.360;2023-05-07T15:08:22;4.57;;;4.10;;
3095;SDS011;1558;42.700;23.360;2023-05-07T15:10:50;5.20;;;4.57;;